Time;durP1;ratioP1;P1;durP2;ratioP2;P2;SDS_P1;SDS_P2;PMS_P1;PMS_P2;Temp;Humidity;BMP_temperature;BMP_pressure;BME280_temperature;BME280_humidity;BME280_pressure;Samples;Min_cycle;Max_cycle;Signal;HPM_P1;HPM_P2
2022/05/04 00:01:11;;;;;;;6.55;4.30;;;9.40;88.50;;;;;;4979303;28;20113;-76
2022/05/04 00:03:40;;;;;;;6.15;4.25;;;9.40;89.40;;;;;;4979513;28;20022;-75
2022/05/04 00:06:06;;;;;;;6.50;4.30;;;9.50;89.80;;;;;;4978512;28;20037;-76
2022/05/04 00:08:32;;;;;;;5.97;3.30;;;9.50;89.90;;;;;;4979333;28;20513;-76
2022/05/04 00:10:59;;;;;;;4.63;3.72;;;9.60;89.20;;;;;;4979356;28;20033;-76
2022/05/04 00:13:25;;;;;;;6.88;4.00;;;9.70;89.10;;;;;;4977342;28;20042;-76
2022/05/04 00:15:51;;;;;;;5.57;3.78;;;9.70;89.20;;;;;;4978534;28;20042;-76
2022/05/04 00:18:17;;;;;;;4.53;3.55;;;9.70;88.60;;;;;;4977123;28;20152;-75
2022/05/04 00:20:43;;;;;;;6.20;3.75;;;9.80;88.10;;;;;;4979226;28;20490;-75
2022/05/04 00:23:09;;;;;;;4.65;3.63;;;9.70;87.60;;;;;;4978600;28;20027;-75
2022/05/04 00:25:34;;;;;;;6.80;3.63;;;9.80;87.60;;;;;;4979255;28;20117;-76
2022/05/04 00:28:02;;;;;;;4.30;3.10;;;9.80;87.50;;;;;;4979557;28;20033;-76
2022/05/04 00:30:29;;;;;;;5.60;3.78;;;9.80;87.40;;;;;;4979080;28;20038;-76
2022/05/04 00:32:54;;;;;;;5.53;3.70;;;9.80;87.70;;;;;;4981523;28;20030;-75
2022/05/04 00:35:20;;;;;;;6.72;4.40;;;9.70;88.20;;;;;;4982566;28;20081;-76
2022/05/04 00:37:46;;;;;;;6.60;4.50;;;9.70;89.00;;;;;;4982792;28;20137;-76
2022/05/04 00:40:12;;;;;;;6.07;4.60;;;9.70;89.60;;;;;;4982292;28;20089;-75
2022/05/04 00:42:38;;;;;;;8.00;4.93;;;9.70;90.00;;;;;;4983388;28;20458;-76
2022/05/04 00:45:04;;;;;;;8.30;5.65;;;9.60;90.10;;;;;;4982071;28;20034;-76
2022/05/04 00:47:31;;;;;;;8.10;5.47;;;9.60;90.30;;;;;;4982846;28;20475;-76
2022/05/04 00:50:04;;;;;;;7.05;5.20;;;9.60;90.50;;;;;;4982306;28;20038;-76
2022/05/04 00:52:37;;;;;;;7.82;4.45;;;9.60;90.80;;;;;;4981810;28;20823;-76
2022/05/04 00:55:05;;;;;;;6.03;4.45;;;9.70;90.80;;;;;;4982456;28;20038;-76
2022/05/04 01:00:19;;;;;;;7.72;5.35;;;9.70;90.30;;;;;;4981898;28;20557;-76
2022/05/04 01:02:45;;;;;;;7.55;5.40;;;9.70;90.50;;;;;;4982745;28;20026;-76
2022/05/04 01:05:11;;;;;;;7.93;5.10;;;9.70;90.70;;;;;;4979337;28;20434;-76
2022/05/04 01:07:38;;;;;;;6.45;5.00;;;9.70;90.70;;;;;;4981344;28;20109;-76
2022/05/04 01:10:05;;;;;;;5.85;4.55;;;9.70;90.60;;;;;;4981968;28;20042;-76
2022/05/04 01:12:31;;;;;;;6.93;4.47;;;9.60;90.30;;;;;;4982318;28;20073;-76
2022/05/04 01:14:58;;;;;;;6.85;4.43;;;9.60;90.10;;;;;;4981718;28;20035;-76
2022/05/04 01:17:24;;;;;;;5.80;4.15;;;9.50;90.20;;;;;;4982456;28;20189;-75
2022/05/04 01:19:50;;;;;;;4.93;3.90;;;9.40;90.20;;;;;;4964720;28;20033;-76
2022/05/04 01:22:15;;;;;;;5.57;3.53;;;9.40;90.10;;;;;;4981276;28;20434;-75
2022/05/04 01:24:41;;;;;;;5.63;3.80;;;9.40;89.70;;;;;;4981326;28;20045;-76
2022/05/04 01:27:11;;;;;;;7.28;4.20;;;9.30;89.90;;;;;;4981646;28;20034;-76
2022/05/04 01:29:37;;;;;;;4.78;3.85;;;9.30;90.10;;;;;;4961730;28;20073;-75
2022/05/04 01:32:04;;;;;;;4.45;3.13;;;9.20;90.20;;;;;;4980923;28;20121;-76
2022/05/04 01:34:29;;;;;;;5.13;3.75;;;9.20;90.30;;;;;;4981161;28;20513;-76
2022/05/04 01:36:55;;;;;;;5.43;3.55;;;9.10;90.00;;;;;;4981217;28;20034;-76
2022/05/04 01:39:21;;;;;;;5.30;3.80;;;9.00;90.10;;;;;;4981480;28;20029;-76
2022/05/04 01:44:32;;;;;;;8.15;4.28;;;9.00;90.30;;;;;;4979335;28;20027;-76
2022/05/04 01:46:58;;;;;;;7.72;5.43;;;8.90;90.80;;;;;;4981290;28;20558;-76
2022/05/04 01:49:24;;;;;;;7.78;5.45;;;8.90;91.40;;;;;;4980975;28;20821;-75
2022/05/04 01:51:49;;;;;;;9.55;6.18;;;8.90;92.10;;;;;;4981408;28;20125;-76
2022/05/04 01:54:15;;;;;;;8.82;6.25;;;9.00;92.60;;;;;;4980399;28;20564;-76
2022/05/04 01:56:41;;;;;;;7.50;5.72;;;9.00;93.00;;;;;;4981173;28;20504;-75
2022/05/04 01:59:07;;;;;;;10.85;6.38;;;9.10;93.00;;;;;;4979966;28;20022;-76
2022/05/04 02:01:33;;;;;;;8.18;5.40;;;9.10;92.80;;;;;;4962682;28;20038;-75
2022/05/04 02:03:59;;;;;;;5.65;4.78;;;9.10;92.60;;;;;;4980930;28;20093;-76
2022/05/04 02:06:25;;;;;;;6.45;4.72;;;9.10;92.40;;;;;;4979814;28;20030;-75
2022/05/04 02:08:51;;;;;;;8.18;4.50;;;9.10;91.90;;;;;;4980876;28;20048;-75
2022/05/04 02:11:17;;;;;;;7.10;4.72;;;9.10;91.10;;;;;;4977698;28;20030;-76
2022/05/04 02:13:43;;;;;;;4.75;3.97;;;9.00;90.70;;;;;;4979269;28;20409;-75
2022/05/04 02:16:09;;;;;;;6.60;4.07;;;8.90;90.80;;;;;;4980115;28;20042;-75
2022/05/04 02:18:35;;;;;;;7.40;4.78;;;8.90;91.00;;;;;;4980162;28;20057;-75
2022/05/04 02:21:01;;;;;;;7.05;4.65;;;8.90;91.60;;;;;;4963198;28;20027;-75
2022/05/04 02:23:27;;;;;;;4.63;3.90;;;9.00;91.60;;;;;;4980281;28;20141;-75
2022/05/04 02:25:52;;;;;;;6.03;4.63;;;9.10;91.20;;;;;;4980224;28;20034;-74
2022/05/04 02:28:18;;;;;;;6.75;4.60;;;9.10;91.10;;;;;;4963490;28;20046;-75
2022/05/04 02:30:44;;;;;;;12.73;4.85;;;9.10;91.30;;;;;;4980464;28;20394;-75
2022/05/04 02:33:11;;;;;;;8.00;4.15;;;9.10;91.20;;;;;;4981788;28;20034;-75
2022/05/04 02:38:21;;;;;;;6.18;4.25;;;9.00;91.10;;;;;;4977684;28;20053;-75
2022/05/04 02:40:48;;;;;;;5.28;3.92;;;9.10;91.30;;;;;;4977436;28;20061;-75
2022/05/04 02:43:14;;;;;;;6.47;4.25;;;9.10;90.60;;;;;;4980108;28;20503;-75
2022/05/04 02:45:40;;;;;;;6.93;4.35;;;9.10;90.30;;;;;;4976695;28;20254;-75
2022/05/04 02:48:09;;;;;;;5.18;4.07;;;9.10;90.60;;;;;;4974758;28;20124;-75
2022/05/04 02:50:36;;;;;;;5.95;4.35;;;9.20;90.80;;;;;;4974883;28;20026;-75
2022/05/04 02:53:02;;;;;;;6.43;4.15;;;9.30;90.70;;;;;;4978791;28;20058;-75
2022/05/04 02:55:28;;;;;;;5.28;3.78;;;9.30;90.10;;;;;;4974878;28;20809;-75
2022/05/04 02:57:53;;;;;;;5.00;4.18;;;9.30;89.70;;;;;;4972617;28;20033;-75
2022/05/04 03:00:19;;;;;;;6.00;4.07;;;9.30;89.90;;;;;;4975331;28;20592;-75
2022/05/04 03:02:45;;;;;;;7.93;4.15;;;9.30;90.10;;;;;;4972714;28;20114;-76
2022/05/04 03:05:14;;;;;;;10.45;4.57;;;9.30;90.20;;;;;;4977060;28;20209;-75
2022/05/04 03:07:40;;;;;;;5.30;4.30;;;9.30;90.10;;;;;;4977299;28;20077;-76
2022/05/04 03:10:06;;;;;;;6.53;4.15;;;9.30;89.80;;;;;;4977501;28;20046;-75
2022/05/04 03:12:32;;;;;;;6.13;4.30;;;9.30;89.40;;;;;;4961730;28;20513;-75
2022/05/04 03:14:58;;;;;;;6.20;4.10;;;9.30;89.60;;;;;;4979008;28;20040;-76
2022/05/04 03:17:25;;;;;;;6.55;4.68;;;9.40;90.00;;;;;;4977894;28;20126;-75
2022/05/04 03:19:50;;;;;;;9.98;4.15;;;9.40;89.90;;;;;;4977260;28;20222;-76
2022/05/04 03:22:16;;;;;;;6.20;4.32;;;9.40;90.00;;;;;;4976568;28;20029;-76
2022/05/04 03:24:42;;;;;;;5.10;4.13;;;9.50;90.00;;;;;;4978037;28;20493;-76
2022/05/04 03:27:08;;;;;;;5.40;4.18;;;9.50;90.20;;;;;;4972934;28;20034;-76
2022/05/04 03:29:34;;;;;;;7.78;4.22;;;9.50;90.40;;;;;;4977976;28;20564;-76
2022/05/04 03:32:00;;;;;;;5.07;4.15;;;9.60;90.50;;;;;;4959949;28;20536;-76
2022/05/04 03:34:26;;;;;;;5.88;4.03;;;9.60;90.30;;;;;;4979327;28;20030;-76
2022/05/04 03:36:54;;;;;;;4.13;3.70;;;9.70;90.20;;;;;;4973675;28;20042;-76
2022/05/04 03:39:20;;;;;;;6.40;4.00;;;9.70;90.00;;;;;;4979438;28;20169;-76
2022/05/04 03:41:45;;;;;;;7.20;4.55;;;9.70;89.80;;;;;;4960478;28;20030;-76
2022/05/04 03:44:11;;;;;;;8.73;3.95;;;9.70;89.30;;;;;;4975743;28;20101;-77
2022/05/04 03:46:50;;;;;;;5.25;4.15;;;9.70;88.70;;;;;;4978020;28;20034;-76
2022/05/04 03:49:18;;;;;;;7.18;4.15;;;9.70;88.40;;;;;;4977285;28;20050;-76
2022/05/04 03:51:44;;;;;;;8.05;4.38;;;9.70;88.60;;;;;;4979382;28;20068;-76
2022/05/04 03:54:10;;;;;;;6.30;3.75;;;9.70;88.60;;;;;;4976076;28;20375;-76
2022/05/04 03:56:37;;;;;;;6.07;4.05;;;9.70;88.60;;;;;;4975936;28;20057;-76
2022/05/04 03:59:04;;;;;;;6.78;3.90;;;9.80;88.50;;;;;;4970896;28;20042;-76
2022/05/04 04:01:30;;;;;;;7.95;4.30;;;9.80;88.40;;;;;;4973132;28;20104;-76
2022/05/04 04:03:55;;;;;;;4.35;3.42;;;9.80;88.40;;;;;;4974814;28;20034;-76
2022/05/04 04:06:21;;;;;;;5.82;4.35;;;9.90;88.60;;;;;;4976382;28;20438;-75
2022/05/04 04:08:48;;;;;;;7.13;4.30;;;9.90;88.60;;;;;;4977666;28;20026;-75
2022/05/04 04:11:14;;;;;;;6.45;4.82;;;10.00;88.70;;;;;;4978940;28;20077;-75
2022/05/04 04:13:40;;;;;;;6.28;4.82;;;10.10;88.90;;;;;;4978101;28;20848;-76
2022/05/04 04:16:06;;;;;;;6.28;4.65;;;10.10;89.20;;;;;;4976680;28;20066;-76
2022/05/04 04:18:31;;;;;;;8.05;5.32;;;10.10;89.30;;;;;;4975243;28;20026;-75
2022/05/04 04:23:41;;;;;;;7.90;5.47;;;10.30;89.50;;;;;;4975575;28;20537;-76
2022/05/04 04:26:08;;;;;;;8.40;4.85;;;10.30;89.40;;;;;;4976780;28;20022;-76
2022/05/04 04:28:36;;;;;;;7.43;5.22;;;10.40;89.20;;;;;;4978370;28;20088;-75
2022/05/04 04:31:02;;;;;;;8.57;6.22;;;10.50;89.20;;;;;;4977399;28;20557;-76
2022/05/04 04:33:29;;;;;;;9.18;5.68;;;10.60;89.20;;;;;;4975212;28;20556;-76
2022/05/04 04:35:59;;;;;;;9.43;5.93;;;10.70;89.30;;;;;;4973316;28;20103;-76
2022/05/04 04:38:28;;;;;;;8.80;5.82;;;10.70;89.20;;;;;;4975069;28;20033;-75
2022/05/04 04:40:56;;;;;;;9.60;6.85;;;10.80;89.20;;;;;;4977062;28;20035;-76
2022/05/04 04:43:22;;;;;;;9.13;6.20;;;11.10;88.90;;;;;;4977180;28;20038;-76
2022/05/04 04:45:48;;;;;;;13.43;7.15;;;11.20;87.80;;;;;;4976800;28;20076;-76
2022/05/04 04:48:16;;;;;;;13.35;6.45;;;11.30;87.40;;;;;;4976737;28;20027;-76
2022/05/04 04:50:48;;;;;;;10.57;6.68;;;11.40;87.10;;;;;;4978459;28;20038;-76
2022/05/04 04:53:15;;;;;;;10.45;6.20;;;11.50;86.70;;;;;;4974918;28;20128;-76
2022/05/04 04:55:41;;;;;;;8.00;6.00;;;11.60;85.70;;;;;;4974597;28;20027;-76
2022/05/04 04:58:07;;;;;;;9.65;6.22;;;11.70;84.50;;;;;;4977094;28;20757;-75
2022/05/04 05:00:33;;;;;;;8.38;6.40;;;11.70;84.20;;;;;;4974864;28;20038;-76
2022/05/04 05:02:58;;;;;;;15.13;6.28;;;11.70;83.50;;;;;;4975655;28;20164;-75
2022/05/04 05:05:24;;;;;;;13.02;6.15;;;11.70;83.80;;;;;;4975308;28;20038;-76
2022/05/04 05:07:50;;;;;;;11.48;6.35;;;11.80;83.70;;;;;;4976026;28;20022;-75
2022/05/04 05:10:16;;;;;;;14.43;6.30;;;11.90;84.00;;;;;;4977312;28;20869;-76
2022/05/04 05:12:41;;;;;;;9.48;6.15;;;12.00;83.60;;;;;;4977711;28;20026;-76
2022/05/04 05:17:52;;;;;;;9.68;5.63;;;12.10;81.80;;;;;;4970526;28;20155;-76
2022/05/04 05:20:18;;;;;;;8.57;5.70;;;12.30;81.60;;;;;;4976517;28;20145;-76
2022/05/04 05:22:44;;;;;;;8.40;6.10;;;12.40;81.20;;;;;;4981331;28;20030;-76
2022/05/04 05:25:10;;;;;;;12.45;6.00;;;12.50;80.40;;;;;;4980006;28;20451;-76
2022/05/04 05:27:36;;;;;;;8.80;5.38;;;12.50;80.30;;;;;;4980756;28;20511;-76
2022/05/04 05:30:02;;;;;;;9.90;5.25;;;12.60;79.60;;;;;;4980319;28;20023;-76
2022/05/04 05:32:28;;;;;;;7.85;5.30;;;12.70;78.70;;;;;;4979915;28;20089;-76
2022/05/04 05:34:53;;;;;;;8.85;5.10;;;12.80;78.70;;;;;;4974425;28;20808;-76
2022/05/04 05:37:22;;;;;;;9.73;5.75;;;12.90;78.40;;;;;;4981307;28;20509;-76
2022/05/04 05:39:48;;;;;;;11.35;5.85;;;13.00;77.80;;;;;;4978352;28;20748;-76
2022/05/04 05:42:14;;;;;;;14.77;6.40;;;13.20;76.90;;;;;;4979687;28;20098;-76
2022/05/04 05:44:39;;;;;;;8.95;5.40;;;13.30;76.40;;;;;;4979196;28;20027;-76
2022/05/04 05:47:05;;;;;;;9.80;5.93;;;13.40;76.00;;;;;;4979329;28;20836;-76
2022/05/04 05:49:31;;;;;;;6.28;4.88;;;13.50;75.10;;;;;;4973025;28;20039;-76
2022/05/04 05:51:57;;;;;;;8.50;4.88;;;13.60;74.90;;;;;;4979670;28;20564;-76
2022/05/04 05:54:23;;;;;;;6.03;4.85;;;13.70;74.30;;;;;;4979388;28;20121;-76
2022/05/04 05:56:49;;;;;;;8.65;5.78;;;13.80;74.20;;;;;;4975090;28;20031;-76
2022/05/04 05:59:15;;;;;;;7.72;5.70;;;14.00;73.70;;;;;;4980540;28;20503;-76
2022/05/04 06:01:42;;;;;;;7.05;5.13;;;14.10;73.00;;;;;;4980394;28;20045;-76
2022/05/04 06:04:08;;;;;;;9.35;5.50;;;14.10;72.50;;;;;;4978875;28;20104;-76
2022/05/04 06:06:33;;;;;;;10.18;5.35;;;14.30;72.30;;;;;;4980657;28;20038;-76
2022/05/04 06:08:59;;;;;;;7.68;5.55;;;14.20;72.10;;;;;;4976745;28;20038;-76
2022/05/04 06:11:25;;;;;;;6.45;5.15;;;14.10;72.40;;;;;;4975755;28;20080;-76
2022/05/04 06:13:54;;;;;;;8.70;5.28;;;14.10;73.00;;;;;;4979115;28;20042;-76
2022/05/04 06:16:21;;;;;;;8.98;5.55;;;14.10;73.00;;;;;;4972412;28;20034;-76
2022/05/04 06:18:46;;;;;;;7.55;5.47;;;14.10;73.50;;;;;;4976230;28;20703;-76
2022/05/04 06:21:12;;;;;;;6.70;4.88;;;14.20;73.00;;;;;;4978920;28;20030;-76
2022/05/04 06:23:38;;;;;;;10.15;5.32;;;14.30;73.20;;;;;;4978452;28;20022;-76
2022/05/04 06:26:04;;;;;;;11.27;5.88;;;14.30;72.80;;;;;;4975487;28;20042;-71
2022/05/04 06:28:30;;;;;;;10.68;6.28;;;14.40;72.50;;;;;;4979698;28;20101;-77
2022/05/04 06:36:24;;;;;;;16.50;5.20;;;14.60;71.80;;;;;;4974927;28;20113;-77
2022/05/04 06:38:50;;;;;;;11.18;5.28;;;14.60;71.40;;;;;;4980330;28;20481;-78
2022/05/04 06:41:16;;;;;;;12.90;5.35;;;14.80;71.30;;;;;;4977818;28;20022;-78
2022/05/04 06:43:42;;;;;;;8.48;4.75;;;14.90;70.60;;;;;;4975716;28;20787;-77
2022/05/04 06:46:07;;;;;;;10.13;5.30;;;15.20;70.00;;;;;;4978281;28;20058;-76
2022/05/04 06:48:33;;;;;;;7.93;4.95;;;15.40;69.20;;;;;;4978273;28;20149;-76
2022/05/04 06:50:59;;;;;;;6.93;4.47;;;15.80;68.10;;;;;;4977193;28;20038;-77
2022/05/04 06:53:25;;;;;;;5.78;4.75;;;16.10;67.30;;;;;;4977235;28;20033;-76
2022/05/04 06:55:51;;;;;;;9.07;5.25;;;16.50;65.40;;;;;;4977981;28;20058;-78
2022/05/04 06:58:16;;;;;;;11.70;4.88;;;16.80;63.90;;;;;;4978647;28;20030;-69
2022/05/04 07:00:42;;;;;;;7.93;5.32;;;17.20;63.10;;;;;;4978784;28;20851;-68
2022/05/04 07:03:08;;;;;;;6.57;5.38;;;17.50;61.70;;;;;;4979577;28;20427;-69
2022/05/04 07:05:34;;;;;;;12.23;5.88;;;17.70;61.20;;;;;;4972126;28;20754;-68
2022/05/04 07:07:59;;;;;;;8.50;4.65;;;17.80;60.70;;;;;;4974947;28;20832;-68
2022/05/04 07:10:25;;;;;;;9.23;4.95;;;17.90;60.80;;;;;;4972444;28;20758;-69
2022/05/04 07:12:53;;;;;;;8.52;5.00;;;17.90;59.80;;;;;;4974476;28;20054;-69
2022/05/04 07:15:19;;;;;;;11.32;4.50;;;17.70;59.40;;;;;;4977972;28;20096;-69
2022/05/04 07:17:45;;;;;;;7.45;4.85;;;17.70;59.50;;;;;;4975930;28;20781;-69
2022/05/04 07:20:11;;;;;;;7.88;4.55;;;17.60;59.40;;;;;;4977495;28;20129;-69
2022/05/04 07:22:36;;;;;;;7.53;4.38;;;17.60;59.90;;;;;;4971361;28;20057;-69
2022/05/04 07:30:14;;;;;;;8.55;4.28;;;18.50;56.70;;;;;;4971701;28;20089;-72
2022/05/04 07:32:39;;;;;;;6.00;4.00;;;18.70;56.60;;;;;;4973677;28;20477;-71
2022/05/04 07:35:08;;;;;;;8.77;4.15;;;19.00;56.20;;;;;;4969614;28;20038;-70
2022/05/04 07:37:34;;;;;;;7.05;4.03;;;19.40;54.80;;;;;;4975286;28;20027;-71
2022/05/04 07:42:44;;;;;;;8.13;3.83;;;19.90;52.80;;;;;;4972757;28;20034;-70
2022/05/04 07:45:12;;;;;;;8.55;4.22;;;19.90;52.10;;;;;;4972798;28;20034;-70
2022/05/04 07:47:39;;;;;;;6.85;4.03;;;20.30;51.90;;;;;;4973349;28;20038;-70
2022/05/04 07:50:08;;;;;;;7.22;4.05;;;22.60;47.10;;;;;;4976559;28;20034;-70
2022/05/04 07:52:34;;;;;;;8.93;4.03;;;24.10;43.60;;;;;;4957474;28;20034;-73
2022/05/04 07:55:00;;;;;;;6.68;3.50;;;23.80;42.40;;;;;;4974049;28;20105;-73
2022/05/04 07:57:26;;;;;;;6.93;3.58;;;23.00;44.40;;;;;;4976657;28;20034;-71
2022/05/04 08:05:23;;;;;;;5.43;3.08;;;21.40;48.40;;;;;;4977190;28;20398;-70
2022/05/04 08:07:49;;;;;;;9.85;4.25;;;22.20;45.90;;;;;;4976192;28;20361;-70
2022/05/04 08:10:14;;;;;;;6.72;3.50;;;22.30;46.40;;;;;;4973723;28;20038;-70
2022/05/04 08:12:40;;;;;;;7.85;3.22;;;22.20;46.30;;;;;;4976609;28;20038;-70
2022/05/04 08:15:07;;;;;;;9.90;4.25;;;23.10;45.30;;;;;;4975908;28;20104;-70
2022/05/04 08:17:33;;;;;;;5.95;2.85;;;23.40;43.80;;;;;;4979144;28;20037;-70
2022/05/04 08:19:59;;;;;;;4.43;2.58;;;22.90;45.20;;;;;;4958671;28;20501;-71
2022/05/04 08:22:28;;;;;;;9.77;3.75;;;22.30;45.90;;;;;;4979148;28;20541;-68
2022/05/04 08:24:54;;;;;;;7.72;3.55;;;21.80;47.10;;;;;;4972596;28;20080;-70
2022/05/04 08:27:20;;;;;;;5.55;3.53;;;21.10;47.00;;;;;;4972543;28;20708;-70
2022/05/04 08:29:46;;;;;;;6.47;3.08;;;20.70;48.60;;;;;;4978911;28;20031;-70
2022/05/04 08:32:12;;;;;;;6.78;4.00;;;20.60;48.60;;;;;;4976996;28;20038;-71
2022/05/04 08:34:37;;;;;;;5.40;3.28;;;21.60;47.30;;;;;;4978031;28;20023;-69
2022/05/04 08:37:04;;;;;;;8.32;2.90;;;22.30;45.50;;;;;;4977088;28;20678;-70
2022/05/04 08:39:30;;;;;;;7.28;3.60;;;22.80;44.90;;;;;;4974605;28;20038;-68
2022/05/04 08:41:57;;;;;;;6.63;3.55;;;23.30;44.70;;;;;;4972514;28;20514;-72
2022/05/04 08:44:24;;;;;;;6.20;3.45;;;23.40;43.20;;;;;;4977763;28;20048;-70
2022/05/04 08:46:51;;;;;;;4.20;2.67;;;23.50;43.30;;;;;;4975961;28;20038;-74
2022/05/04 08:49:19;;;;;;;5.45;3.40;;;23.70;43.90;;;;;;4956744;28;20498;-73
2022/05/04 08:51:48;;;;;;;4.13;3.30;;;23.90;40.80;;;;;;4976367;28;20034;-73
2022/05/04 08:54:14;;;;;;;5.80;2.70;;;25.70;39.90;;;;;;4979201;28;20045;-74
2022/05/04 08:56:40;;;;;;;7.13;3.40;;;28.10;36.80;;;;;;4978433;28;20131;-72
2022/05/04 08:59:07;;;;;;;5.80;2.72;;;28.70;34.30;;;;;;4978899;28;20046;-68
2022/05/04 09:01:39;;;;;;;7.03;3.33;;;29.10;34.60;;;;;;4976747;28;20737;-73
2022/05/04 09:04:06;;;;;;;4.55;3.10;;;30.00;32.40;;;;;;4977787;28;20045;-73
2022/05/04 09:06:41;;;;;;;7.30;3.13;;;29.00;33.70;;;;;;4975601;28;20150;-73
2022/05/04 09:09:10;;;;;;;15.43;4.03;;;28.90;34.00;;;;;;4979214;28;20049;-74
2022/05/04 09:11:38;;;;;;;8.20;3.08;;;28.80;34.00;;;;;;4980153;28;20042;-73
2022/05/04 09:14:15;;;;;;;6.70;3.17;;;28.40;34.40;;;;;;4976949;28;20665;-73
2022/05/04 09:16:41;;;;;;;7.15;3.65;;;28.00;35.30;;;;;;4977769;28;20504;-73
2022/05/04 09:19:09;;;;;;;9.18;2.80;;;28.00;35.70;;;;;;4978627;28;20036;-73
2022/05/04 09:21:36;;;;;;;6.70;3.17;;;28.10;34.90;;;;;;4980992;28;20062;-73
2022/05/04 09:24:01;;;;;;;7.35;3.13;;;28.50;34.50;;;;;;4979256;28;20732;-74
2022/05/04 09:26:27;;;;;;;9.23;3.40;;;29.00;33.80;;;;;;4978800;28;20040;-74
2022/05/04 09:29:05;;;;;;;6.65;3.15;;;28.50;34.00;;;;;;4978264;28;20457;-72
2022/05/04 09:31:33;;;;;;;5.72;3.00;;;27.90;34.70;;;;;;4978587;28;20030;-68
2022/05/04 09:34:02;;;;;;;5.68;3.10;;;27.30;35.50;;;;;;4979982;28;20030;-73
2022/05/04 09:36:37;;;;;;;6.43;2.90;;;27.10;35.50;;;;;;4960070;28;20595;-73
2022/05/04 09:45:11;;;;;;;4.65;2.72;;;26.80;35.20;;;;;;4976356;28;20035;-69
2022/05/04 09:47:50;;;;;;;8.35;2.40;;;26.70;35.90;;;;;;4979941;28;20057;-68
2022/05/04 09:50:17;;;;;;;5.28;2.80;;;26.60;35.00;;;;;;4978840;28;20035;-72
2022/05/04 09:52:46;;;;;;;9.38;2.95;;;26.50;36.90;;;;;;4980552;28;20038;-71
2022/05/04 09:55:30;;;;;;;3.55;2.70;;;26.10;37.80;;;;;;4956867;28;20043;-71
2022/05/04 09:57:56;;;;;;;7.20;3.20;;;26.20;37.40;;;;;;4977003;28;20264;-72
2022/05/04 10:00:25;;;;;;;6.03;2.95;;;25.70;37.20;;;;;;4980910;28;20030;-70
2022/05/04 10:02:54;;;;;;;6.35;3.33;;;25.60;37.50;;;;;;4979562;28;20018;-69
2022/05/04 10:05:21;;;;;;;6.93;3.22;;;25.50;37.70;;;;;;4977006;28;20101;-69
2022/05/04 10:07:49;;;;;;;6.68;3.33;;;25.50;38.00;;;;;;4979851;28;20061;-70
2022/05/04 10:10:18;;;;;;;6.15;2.90;;;25.60;37.60;;;;;;4979228;28;20089;-69
2022/05/04 10:12:44;;;;;;;6.88;3.30;;;26.20;37.50;;;;;;4980157;28;20030;-70
2022/05/04 10:15:12;;;;;;;5.88;3.35;;;27.20;35.40;;;;;;4979686;28;20815;-70
2022/05/04 10:18:05;;;;;;;6.78;3.33;;;27.30;35.90;;;;;;4974402;28;20034;-70
2022/05/04 10:20:31;;;;;;;5.40;3.33;;;27.90;34.50;;;;;;4976384;28;20040;-69
2022/05/04 10:23:21;;;;;;;7.15;3.03;;;28.20;33.90;;;;;;4977007;28;20022;-69
2022/05/04 10:25:50;;;;;;;5.65;2.83;;;27.40;34.40;;;;;;4977515;28;20172;-70
2022/05/04 10:28:16;;;;;;;9.05;3.33;;;27.40;34.60;;;;;;4979261;28;20030;-70
2022/05/04 10:30:46;;;;;;;8.52;3.30;;;27.20;33.80;;;;;;4978877;28;20109;-69
2022/05/04 10:33:13;;;;;;;3.95;2.45;;;26.70;35.30;;;;;;4974203;28;20042;-70
2022/05/04 10:35:42;;;;;;;7.32;2.78;;;26.40;35.60;;;;;;4976336;28;20112;-69
2022/05/04 10:38:26;;;;;;;4.13;2.60;;;26.10;36.80;;;;;;4979033;28;20034;-71
2022/05/04 10:40:55;;;;;;;9.85;3.25;;;25.90;37.30;;;;;;4978110;28;20137;-70
2022/05/04 10:43:37;;;;;;;6.15;3.08;;;25.40;37.40;;;;;;4978759;28;20444;-71
2022/05/04 10:46:16;;;;;;;5.60;2.50;;;25.30;37.40;;;;;;4972660;28;20045;-71
2022/05/04 10:48:55;;;;;;;6.07;2.78;;;25.10;38.30;;;;;;4979426;28;20026;-71
2022/05/04 10:51:24;;;;;;;5.78;2.50;;;25.00;39.10;;;;;;4975706;28;20130;-71
2022/05/04 10:54:04;;;;;;;10.73;3.58;;;25.10;39.30;;;;;;4977312;28;20373;-71
2022/05/04 10:56:50;;;;;;;12.35;6.50;;;25.50;38.20;;;;;;4977234;28;20117;-70
2022/05/04 10:59:31;;;;;;;;;;;26.30;36.70;;;;;;4978747;28;20026;-70
2022/05/04 11:02:04;;;;;;;15.07;4.78;;;26.60;37.00;;;;;;4975867;28;19913;-70
2022/05/04 11:04:30;;;;;;;7.07;3.03;;;26.40;36.80;;;;;;4976101;28;20060;-70
2022/05/04 11:06:58;;;;;;;6.13;3.25;;;26.00;37.00;;;;;;4978743;28;20022;-70
2022/05/04 11:09:29;;;;;;;7.60;3.00;;;25.50;38.10;;;;;;4958462;28;20034;-70
2022/05/04 11:12:00;;;;;;;6.32;2.60;;;25.10;38.80;;;;;;4976774;28;20104;-68
2022/05/04 11:14:26;;;;;;;4.85;2.45;;;24.80;38.90;;;;;;4975908;28;20034;-69
2022/05/04 11:16:55;;;;;;;5.93;2.92;;;24.80;38.90;;;;;;4978220;28;20042;-70
2022/05/04 11:19:29;;;;;;;7.88;3.60;;;24.70;39.50;;;;;;4975587;28;20026;-72
2022/05/04 11:21:56;;;;;;;8.77;2.72;;;24.30;40.00;;;;;;4977028;28;20030;-69
2022/05/04 11:24:25;;;;;;;10.20;3.33;;;24.20;40.10;;;;;;4978253;28;20109;-68
2022/05/04 11:26:52;;;;;;;9.32;3.08;;;24.10;41.00;;;;;;4977639;28;20027;-69
2022/05/04 11:29:22;;;;;;;3.90;2.90;;;24.00;40.20;;;;;;4978361;28;20092;-68
2022/05/04 11:31:55;;;;;;;5.13;2.55;;;24.10;40.10;;;;;;4978365;28;20568;-70
2022/05/04 11:34:26;;;;;;;5.53;2.70;;;24.20;40.40;;;;;;4972142;28;20387;-69
2022/05/04 11:36:56;;;;;;;5.63;2.67;;;24.10;39.50;;;;;;4975519;28;20193;-69
2022/05/04 11:39:27;;;;;;;20.75;3.17;;;24.00;40.10;;;;;;4975908;28;20120;-69
2022/05/04 11:41:59;;;;;;;4.10;2.47;;;24.10;40.50;;;;;;4977545;28;20030;-69
2022/05/04 11:44:26;;;;;;;4.43;2.85;;;24.20;39.80;;;;;;4978165;28;20089;-69
2022/05/04 11:46:54;;;;;;;4.22;2.45;;;24.30;40.10;;;;;;4976153;28;20571;-70
2022/05/04 11:49:23;;;;;;;5.60;2.72;;;24.30;40.10;;;;;;4970834;28;20037;-70
2022/05/04 11:51:50;;;;;;;6.07;2.60;;;24.00;39.80;;;;;;4972968;28;20046;-70
2022/05/04 11:54:16;;;;;;;3.13;2.20;;;23.70;40.90;;;;;;4975137;28;20031;-70
2022/05/04 11:56:43;;;;;;;5.70;2.67;;;23.90;41.30;;;;;;4975200;28;20053;-71
2022/05/04 11:59:09;;;;;;;3.88;2.25;;;24.10;40.30;;;;;;4974985;28;20891;-70
2022/05/04 12:01:36;;;;;;;4.03;2.65;;;24.00;39.90;;;;;;4978224;28;20030;-69
2022/05/04 12:04:03;;;;;;;4.25;2.30;;;24.10;40.50;;;;;;4977141;28;20422;-68
2022/05/04 12:06:30;;;;;;;4.38;2.70;;;24.10;40.40;;;;;;4974487;28;20062;-68
2022/05/04 12:08:56;;;;;;;3.97;2.78;;;24.00;39.60;;;;;;4975030;28;20065;-69
2022/05/04 12:11:26;;;;;;;2.85;2.05;;;23.90;40.00;;;;;;4975222;28;20023;-69
2022/05/04 12:13:52;;;;;;;4.38;2.22;;;23.70;40.50;;;;;;4974357;28;20044;-72
2022/05/04 12:16:18;;;;;;;5.22;2.22;;;23.90;41.60;;;;;;4976214;28;20045;-69
2022/05/04 12:18:47;;;;;;;4.68;2.40;;;24.20;41.20;;;;;;4977038;28;20048;-67
2022/05/04 12:21:22;;;;;;;3.33;2.20;;;24.30;39.30;;;;;;4976167;28;20813;-69
2022/05/04 12:23:51;;;;;;;2.13;1.92;;;24.40;39.00;;;;;;4975148;28;20018;-70
2022/05/04 12:26:17;;;;;;;4.68;2.35;;;24.40;37.80;;;;;;4969894;28;20034;-69
2022/05/04 12:33:08;;;;;;;5.32;2.47;;;24.40;39.00;;;;;;4978394;28;20038;-70
2022/05/04 12:34:15;;;;;;;4.35;2.22;;;24.60;39.20;;;;;;4982209;28;20050;-70
2022/05/04 12:36:44;;;;;;;3.25;1.92;;;24.50;38.10;;;;;;4980034;28;20466;-69
2022/05/04 12:39:10;;;;;;;3.55;2.22;;;24.40;38.30;;;;;;4981520;28;20042;-70
2022/05/04 12:41:36;;;;;;;2.72;2.22;;;24.30;38.60;;;;;;4983127;28;20612;-69
2022/05/04 12:44:06;;;;;;;5.25;2.22;;;24.30;38.60;;;;;;4979210;28;20030;-66
2022/05/04 12:46:32;;;;;;;3.75;2.03;;;24.40;37.70;;;;;;4979273;28;20034;-68
2022/05/04 12:48:58;;;;;;;5.07;2.42;;;24.40;38.60;;;;;;4981232;28;20026;-68
2022/05/04 12:51:24;;;;;;;42.75;3.78;;;24.10;39.10;;;;;;4980291;28;20121;-68
2022/05/04 12:53:51;;;;;;;5.18;2.50;;;23.80;39.30;;;;;;4981113;28;20026;-69
2022/05/04 12:59:03;;;;;;;6.35;1.90;;;24.00;39.50;;;;;;4980101;28;22385;-68
2022/05/04 13:01:31;;;;;;;5.75;2.33;;;24.00;39.80;;;;;;4980814;28;20066;-69
2022/05/04 13:03:57;;;;;;;3.33;2.00;;;24.10;40.10;;;;;;4959927;28;20058;-69
2022/05/04 13:06:23;;;;;;;3.28;2.28;;;24.20;40.50;;;;;;4979042;28;20796;-68
2022/05/04 13:08:49;;;;;;;1.98;1.80;;;24.30;39.50;;;;;;4975574;28;20022;-69
2022/05/04 13:11:20;;;;;;;3.10;2.40;;;24.40;38.90;;;;;;4954348;28;20061;-69
2022/05/04 13:13:46;;;;;;;3.67;2.03;;;24.50;39.50;;;;;;4978192;28;20038;-68
2022/05/04 13:16:12;;;;;;;3.10;2.22;;;24.60;39.90;;;;;;4979087;28;20031;-68
2022/05/04 13:18:39;;;;;;;3.30;2.80;;;24.60;39.60;;;;;;4981152;28;20065;-69
2022/05/04 13:21:05;;;;;;;2.45;2.15;;;24.50;39.00;;;;;;4978970;28;20057;-69
2022/05/04 13:23:31;;;;;;;3.63;1.85;;;24.30;39.00;;;;;;4976958;28;20026;-69
2022/05/04 13:25:57;;;;;;;3.22;2.30;;;24.20;38.60;;;;;;4976493;28;20033;-69
2022/05/04 13:28:23;;;;;;;2.45;2.10;;;24.30;38.40;;;;;;4974374;28;20419;-70
2022/05/04 13:30:49;;;;;;;4.32;2.60;;;24.20;38.80;;;;;;4981144;28;20107;-70
2022/05/04 13:33:15;;;;;;;5.20;2.53;;;24.30;39.10;;;;;;4978428;28;20037;-70
2022/05/04 13:35:41;;;;;;;4.50;2.80;;;24.30;38.60;;;;;;4979881;28;20065;-68